Brooks County Airport


Codes: KBKS/
Name: Brooks County Airport
City: Falfurrias
Country: United States
Elevation: 113 ft.

Photos at Brooks County Airport


   Photos courtesy of SpottingLog. You can add your own sightings and photos by signing up for a free trial today.



No photos found.

Weather at Brooks County Airport


Time (UTC)DescriptionTempratureWindCloud coverageVisibilityPressureHumidity
13-Jun-2024 03:00Light Rain31°C9 mph, SE5%10000m1010hPa66%
13-Jun-2024 06:00Clear Sky28°C7 mph, SE5%10000m1011hPa78%
13-Jun-2024 09:00Few Clouds25°C7 mph, S23%10000m1011hPa89%
13-Jun-2024 12:00Scattered Clouds25°C4 mph, SE33%10000m1011hPa89%
13-Jun-2024 15:00Clear Sky31°C4 mph, E3%10000m1012hPa57%
13-Jun-2024 18:00Clear Sky37°C9 mph, NE2%10000m1011hPa35%
13-Jun-2024 21:00Broken Clouds36°C18 mph, E79%10000m1010hPa37%
14-Jun-2024 00:00Broken Clouds33°C18 mph, E60%10000m1010hPa44%
14-Jun-2024 03:00Clear Sky27°C9 mph, SE0%10000m1012hPa77%
14-Jun-2024 06:00Clear Sky25°C7 mph, SE0%10000m1012hPa91%
14-Jun-2024 09:00Clear Sky24°C4 mph, S0%10000m1012hPa92%
14-Jun-2024 12:00Clear Sky24°C2 mph, SE0%10000m1012hPa90%
14-Jun-2024 15:00Clear Sky31°C7 mph, E0%10000m1013hPa53%
14-Jun-2024 18:00Clear Sky37°C13 mph, E1%10000m1012hPa33%
14-Jun-2024 21:00Few Clouds38°C18 mph, E12%10000m1010hPa31%
15-Jun-2024 00:00Clear Sky33°C18 mph, E5%10000m1010hPa44%
15-Jun-2024 03:00Clear Sky27°C11 mph, SE0%10000m1011hPa76%
15-Jun-2024 06:00Clear Sky25°C7 mph, SE0%10000m1012hPa91%
15-Jun-2024 09:00Clear Sky24°C4 mph, SE0%10000m1011hPa92%
15-Jun-2024 12:00Clear Sky24°C2 mph, S0%10000m1011hPa92%
15-Jun-2024 15:00Clear Sky31°C7 mph, SE0%10000m1012hPa56%
15-Jun-2024 18:00Clear Sky38°C9 mph, E0%10000m1009hPa30%
15-Jun-2024 21:00Clear Sky38°C22 mph, E4%10000m1007hPa33%
16-Jun-2024 00:00Clear Sky33°C20 mph, E4%10000m1008hPa49%
16-Jun-2024 03:00Clear Sky27°C11 mph, SE0%10000m1009hPa81%
16-Jun-2024 06:00Clear Sky26°C9 mph, SE1%10000m1010hPa88%
16-Jun-2024 09:00Few Clouds24°C7 mph, SE12%10000m1009hPa94%
16-Jun-2024 12:00Clear Sky25°C7 mph, SE10%10000m1010hPa94%
16-Jun-2024 15:00Clear Sky32°C16 mph, SE5%10000m1010hPa55%
16-Jun-2024 18:00Scattered Clouds36°C18 mph, SE33%10000m1008hPa40%
16-Jun-2024 21:00Overcast Clouds35°C18 mph, SE86%10000m1007hPa41%
17-Jun-2024 00:00Overcast Clouds32°C22 mph, SE89%10000m1008hPa49%
17-Jun-2024 03:00Clear Sky27°C16 mph, SE2%10000m1010hPa76%
17-Jun-2024 06:00Clear Sky26°C13 mph, SE1%10000m1010hPa77%
17-Jun-2024 09:00Clear Sky25°C7 mph, SE0%10000m1009hPa82%
17-Jun-2024 12:00Clear Sky24°C7 mph, SE0%10000m1009hPa88%
17-Jun-2024 15:00Light Rain32°C16 mph, SE10%10000m1009hPa53%
17-Jun-2024 18:00Scattered Clouds34°C18 mph, SE46%10000m1008hPa43%
17-Jun-2024 21:00Overcast Clouds34°C20 mph, SE100%10000m1008hPa44%
18-Jun-2024 00:00Overcast Clouds31°C22 mph, SE90%10000m1008hPa61%